Terminal Aerodrome Forecast
Issued by NWS Des Moines, IA

Home | Current Version | Previous Version | Text Only | Print | Product List | Glossary On
Versions: 1 2 3 4 5 6 7 8 9 10 11 12 13 14 15 16 17 18 19 20 21 22 23 24 25 26 27 28 29 30 31 32 33 34 35 36 37 38 39 40 41 42 43 44 45 46 47 48 49 50
066
FTUS43 KDMX 200527
TAFALO
TAF
KALO 200527Z 2006/2106 31007KT 1SM BR OVC003
     FM200700 32004KT 1/2SM -FZRA FG OVC002
     FM200900 31004KT 1SM -FZRA BR OVC003
     FM201200 30005KT 2SM -FZDZ BR OVC004
     FM201500 30007KT 3SM -FZDZ BR OVC007
     FM201700 31009KT 5SM -FZDZ BR OVC010
     FM201800 31012KT P6SM OVC017
     FM202300 31015G22KT P6SM BKN020=

USA.gov is the U.S. government's official web portal to all federal, state and local government web resources and services.